Time;durP1;ratioP1;P1;durP2;ratioP2;P2;SDS_P1;SDS_P2;PMS_P1;PMS_P2;Temp;Humidity;BMP_temperature;BMP_pressure;BME280_temperature;BME280_humidity;BME280_pressure;Samples;Min_cycle;Max_cycle;Signal;HPM_P1;HPM_P2
2023/12/24 00:01:12;;;;;;;868.13;793.72;;;8.80;99.90;;;;;;6303736;22;20076;-81
2023/12/24 00:03:38;;;;;;;938.65;850.55;;;8.80;99.90;;;;;;6303953;22;20037;-81
2023/12/24 00:06:05;;;;;;;813.63;746.92;;;8.80;99.90;;;;;;6303445;22;20068;-81
2023/12/24 00:08:31;;;;;;;921.30;840.88;;;8.90;99.90;;;;;;6332364;22;20033;-81
2023/12/24 00:10:57;;;;;;;757.25;697.17;;;8.80;99.90;;;;;;6303357;22;20022;-81
2023/12/24 00:13:25;;;;;;;777.92;716.70;;;8.80;99.90;;;;;;6304603;22;20019;-81
2023/12/24 00:15:51;;;;;;;895.20;815.30;;;8.80;99.90;;;;;;6332626;22;20015;-81
2023/12/24 00:18:17;;;;;;;924.63;841.42;;;8.80;99.90;;;;;;6303965;22;20449;-80
2023/12/24 00:20:43;;;;;;;872.95;799.80;;;8.90;99.90;;;;;;6303326;22;20021;-81
2023/12/24 00:23:10;;;;;;;850.70;776.67;;;8.90;99.90;;;;;;6332414;22;20089;-81
2023/12/24 00:25:37;;;;;;;758.67;699.75;;;8.90;99.90;;;;;;6331515;22;20054;-80
2023/12/24 00:28:03;;;;;;;920.85;834.92;;;9.00;99.90;;;;;;6304287;22;20050;-80
2023/12/24 00:30:29;;;;;;;857.78;784.53;;;8.90;99.90;;;;;;6303757;22;20044;-81
2023/12/24 00:32:56;;;;;;;975.80;877.97;;;8.90;99.90;;;;;;6303688;22;20093;-81
2023/12/24 00:35:23;;;;;;;997.38;890.65;;;8.90;99.90;;;;;;6330811;22;20026;-80
2023/12/24 00:37:49;;;;;;;1000.60;902.60;;;8.90;99.90;;;;;;6304324;22;20019;-81
2023/12/24 00:40:16;;;;;;;952.58;866.03;;;8.90;99.90;;;;;;6302752;22;20144;-81
2023/12/24 00:42:42;;;;;;;881.85;803.72;;;9.00;99.90;;;;;;6303822;22;20391;-81
2023/12/24 00:45:09;;;;;;;850.38;777.17;;;8.90;99.90;;;;;;6303213;22;20018;-80
2023/12/24 00:47:35;;;;;;;911.15;830.40;;;8.90;99.90;;;;;;6303015;22;20449;-81
2023/12/24 00:50:01;;;;;;;793.65;731.08;;;8.90;99.90;;;;;;6302876;22;20057;-80
2023/12/24 00:52:27;;;;;;;890.15;812.10;;;8.90;99.90;;;;;;6302304;22;20496;-81
2023/12/24 00:54:52;;;;;;;911.22;831.65;;;8.90;99.90;;;;;;6332388;22;20048;-80
2023/12/24 00:57:19;;;;;;;930.03;848.20;;;8.90;99.90;;;;;;6331023;22;20038;-81
2023/12/24 00:59:44;;;;;;;889.58;813.30;;;8.90;99.90;;;;;;6330957;22;20044;-80
2023/12/24 01:02:10;;;;;;;919.13;827.97;;;8.90;99.90;;;;;;6298174;22;20080;-80
2023/12/24 01:04:36;;;;;;;884.03;809.42;;;8.90;99.90;;;;;;6299981;22;20404;-80
2023/12/24 01:07:01;;;;;;;910.60;829.40;;;8.90;99.90;;;;;;6298441;22;20025;-80
2023/12/24 01:09:27;;;;;;;870.08;797.20;;;8.90;99.90;;;;;;6299758;22;20019;-81
2023/12/24 01:11:53;;;;;;;894.97;813.17;;;8.90;99.90;;;;;;6298846;22;20026;-80
2023/12/24 01:14:19;;;;;;;869.28;794.20;;;8.80;99.90;;;;;;6297449;22;20060;-81
2023/12/24 01:16:45;;;;;;;877.30;802.30;;;8.80;99.90;;;;;;6297913;22;20328;-81
2023/12/24 01:19:11;;;;;;;896.95;815.80;;;8.80;99.90;;;;;;6298533;22;20022;-81
2023/12/24 01:21:36;;;;;;;1097.68;962.40;;;8.80;99.90;;;;;;6297784;22;20084;-80
2023/12/24 01:24:02;;;;;;;820.95;751.90;;;8.80;99.90;;;;;;6298701;22;20016;-80
2023/12/24 01:26:28;;;;;;;944.53;859.70;;;8.80;99.90;;;;;;6297463;22;20019;-81
2023/12/24 01:28:54;;;;;;;883.90;807.60;;;8.80;99.90;;;;;;6299220;22;20015;-81
2023/12/24 01:31:20;;;;;;;982.88;889.55;;;8.80;99.90;;;;;;6299808;22;20502;-80
2023/12/24 01:33:46;;;;;;;956.85;864.17;;;8.80;99.90;;;;;;6298424;22;20435;-81
2023/12/24 01:36:11;;;;;;;830.40;757.03;;;8.90;99.90;;;;;;6296211;22;20343;-80
2023/12/24 01:38:37;;;;;;;1065.03;944.15;;;8.80;99.90;;;;;;6300773;22;20026;-80
2023/12/24 01:41:03;;;;;;;925.53;840.63;;;8.80;99.90;;;;;;6298263;22;20011;-81
2023/12/24 01:43:29;;;;;;;902.58;824.92;;;8.90;99.90;;;;;;6299403;22;20019;-80
2023/12/24 01:45:55;;;;;;;1005.85;907.45;;;8.90;99.90;;;;;;6297909;22;20051;-81
2023/12/24 01:48:21;;;;;;;892.17;819.35;;;8.90;99.90;;;;;;6300674;22;20023;-81
2023/12/24 01:50:48;;;;;;;935.53;852.53;;;8.90;99.90;;;;;;6296769;22;20022;-80
2023/12/24 01:53:17;;;;;;;992.92;899.22;;;8.80;99.90;;;;;;6298043;22;20432;-81
2023/12/24 01:55:43;;;;;;;895.25;818.40;;;8.90;99.90;;;;;;6297888;22;20026;-81
2023/12/24 01:58:09;;;;;;;811.05;745.65;;;8.90;99.90;;;;;;6272186;22;20055;-81
2023/12/24 02:00:35;;;;;;;833.85;767.03;;;8.90;99.90;;;;;;6302362;22;20019;-81
2023/12/24 02:03:02;;;;;;;957.50;868.70;;;8.90;99.90;;;;;;6330994;22;20026;-80
2023/12/24 02:05:28;;;;;;;950.05;864.30;;;8.80;99.90;;;;;;6330437;22;20316;-81
2023/12/24 02:07:55;;;;;;;991.88;900.05;;;8.80;99.90;;;;;;6304202;22;20084;-80
2023/12/24 02:10:22;;;;;;;1034.60;931.45;;;8.80;99.90;;;;;;6330363;22;20019;-81
2023/12/24 02:12:49;;;;;;;1016.47;916.63;;;8.80;99.90;;;;;;6303868;22;20027;-81
2023/12/24 02:15:15;;;;;;;903.17;826.08;;;8.80;99.90;;;;;;6330986;22;20007;-81
2023/12/24 02:17:42;;;;;;;951.03;866.40;;;8.90;99.90;;;;;;6302560;22;20047;-81
2023/12/24 02:20:09;;;;;;;1024.43;925.17;;;8.80;99.90;;;;;;6302230;22;20023;-80
2023/12/24 02:22:34;;;;;;;1357.40;999.90;;;8.90;99.90;;;;;;6303654;22;20014;-81
2023/12/24 02:25:00;;;;;;;861.88;792.22;;;8.80;99.90;;;;;;6303033;22;20019;-81
2023/12/24 02:27:36;;;;;;;875.22;802.97;;;8.80;99.90;;;;;;6302609;22;20443;-81
2023/12/24 02:30:07;;;;;;;958.67;869.58;;;8.80;99.90;;;;;;6303359;22;20102;-81
2023/12/24 02:32:37;;;;;;;987.15;890.58;;;8.90;99.90;;;;;;6302492;22;20029;-80
2023/12/24 02:35:04;;;;;;;893.80;817.13;;;8.80;99.90;;;;;;6304123;22;20436;-80
2023/12/24 02:37:30;;;;;;;981.33;889.55;;;8.90;99.90;;;;;;6304689;22;20019;-81
2023/12/24 02:39:56;;;;;;;937.90;854.58;;;8.90;99.90;;;;;;6304038;22;20019;-80
2023/12/24 02:42:22;;;;;;;1013.45;911.83;;;8.90;99.90;;;;;;6305036;22;20033;-81
2023/12/24 02:44:47;;;;;;;874.65;802.40;;;8.90;99.90;;;;;;6304292;22;20007;-81
2023/12/24 02:47:13;;;;;;;1034.10;926.45;;;8.90;99.90;;;;;;6304728;22;20411;-80
2023/12/24 02:49:39;;;;;;;868.92;796.08;;;8.90;99.90;;;;;;6305111;22;20046;-80
2023/12/24 02:52:05;;;;;;;860.05;789.20;;;8.90;99.90;;;;;;6302877;22;20010;-80
2023/12/24 02:54:30;;;;;;;892.38;818.25;;;8.90;99.90;;;;;;6332542;22;20430;-80
2023/12/24 02:56:56;;;;;;;1122.55;988.47;;;9.00;99.90;;;;;;6332826;22;20022;-81
2023/12/24 02:59:25;;;;;;;949.80;861.28;;;8.90;99.90;;;;;;6303621;22;20049;-80
2023/12/24 03:01:51;;;;;;;917.00;838.22;;;9.00;99.90;;;;;;6279097;22;20023;-81
2023/12/24 03:04:16;;;;;;;920.92;838.42;;;9.00;99.90;;;;;;6304402;22;20022;-81
2023/12/24 03:06:42;;;;;;;902.13;823.25;;;8.90;99.90;;;;;;6302833;22;20102;-80
2023/12/24 03:09:10;;;;;;;1049.55;944.15;;;8.90;99.90;;;;;;6333535;22;20018;-81
2023/12/24 03:11:35;;;;;;;961.08;871.78;;;9.00;99.90;;;;;;6304250;22;20011;-81
2023/12/24 03:14:01;;;;;;;967.25;875.33;;;9.00;99.90;;;;;;6304166;22;20029;-81
2023/12/24 03:16:27;;;;;;;900.70;822.85;;;9.00;99.90;;;;;;6331559;22;20026;-81
2023/12/24 03:18:53;;;;;;;920.25;836.25;;;9.00;99.90;;;;;;6305354;22;20916;-80
2023/12/24 03:21:18;;;;;;;947.72;858.67;;;9.00;99.90;;;;;;6302668;22;20019;-80
2023/12/24 03:23:44;;;;;;;955.50;867.05;;;9.00;99.90;;;;;;6304659;22;20018;-81
2023/12/24 03:26:19;;;;;;;879.20;805.55;;;9.10;99.90;;;;;;6304342;22;20027;-81
2023/12/24 03:28:45;;;;;;;867.85;796.80;;;9.00;99.90;;;;;;6331371;22;20453;-81
2023/12/24 03:31:11;;;;;;;962.75;871.75;;;9.00;99.90;;;;;;6332307;22;20022;-81
2023/12/24 03:33:37;;;;;;;1018.55;914.63;;;9.10;99.90;;;;;;6304593;22;20019;-80
2023/12/24 03:36:05;;;;;;;963.20;874.42;;;9.00;99.90;;;;;;6331100;22;20018;-81
2023/12/24 03:38:31;;;;;;;975.22;879.97;;;9.10;99.90;;;;;;6331445;22;20090;-81
2023/12/24 03:40:57;;;;;;;876.65;802.40;;;9.10;99.90;;;;;;6304716;22;20054;-80
2023/12/24 03:43:22;;;;;;;894.28;816.85;;;9.10;99.90;;;;;;6303343;22;20022;-81
2023/12/24 03:45:48;;;;;;;936.72;847.78;;;9.10;99.90;;;;;;6332136;22;20011;-81
2023/12/24 03:48:14;;;;;;;952.42;867.70;;;9.00;99.90;;;;;;6331150;22;20443;-81
2023/12/24 03:50:39;;;;;;;881.55;808.42;;;9.10;99.90;;;;;;6302870;22;20386;-81
2023/12/24 03:53:06;;;;;;;1116.90;986.88;;;9.20;99.90;;;;;;6304791;22;20045;-81
2023/12/24 03:55:32;;;;;;;943.25;861.47;;;9.20;99.90;;;;;;6302972;22;20021;-81
2023/12/24 03:57:58;;;;;;;1015.33;914.88;;;9.20;99.90;;;;;;6304306;22;20090;-81
2023/12/24 04:00:23;;;;;;;986.95;889.17;;;9.10;99.90;;;;;;6303936;22;20019;-81
2023/12/24 04:02:49;;;;;;;1075.47;957.35;;;9.10;99.90;;;;;;6302945;22;20041;-80
2023/12/24 04:05:16;;;;;;;892.97;816.25;;;9.20;99.90;;;;;;6303828;22;20025;-80
2023/12/24 04:07:42;;;;;;;863.38;793.00;;;9.10;99.90;;;;;;6278125;22;20058;-82
2023/12/24 04:10:08;;;;;;;1037.25;932.42;;;9.20;99.90;;;;;;6303468;22;20022;-80
2023/12/24 04:12:35;;;;;;;1074.25;964.22;;;9.20;99.90;;;;;;6332169;22;20026;-81
2023/12/24 04:15:01;;;;;;;964.10;877.10;;;9.10;99.90;;;;;;6304241;22;20019;-81
2023/12/24 04:17:26;;;;;;;872.17;801.13;;;9.30;99.90;;;;;;6302954;22;20018;-81
2023/12/24 04:19:52;;;;;;;913.55;831.97;;;9.20;99.90;;;;;;6331948;22;20010;-81
2023/12/24 04:22:18;;;;;;;1003.15;908.08;;;9.20;99.90;;;;;;6303548;22;20026;-81
2023/12/24 04:24:43;;;;;;;1056.70;943.90;;;9.20;99.90;;;;;;6303405;22;20015;-81
2023/12/24 04:27:11;;;;;;;877.40;802.78;;;9.30;99.90;;;;;;6303507;22;20067;-81
2023/12/24 04:29:36;;;;;;;926.30;845.60;;;9.30;99.90;;;;;;6332325;22;20011;-81
2023/12/24 04:32:02;;;;;;;985.72;892.80;;;9.30;99.90;;;;;;6303006;22;20342;-80
2023/12/24 04:34:28;;;;;;;1097.85;976.92;;;9.20;99.90;;;;;;6303522;22;20407;-81
2023/12/24 04:36:54;;;;;;;883.90;807.10;;;9.20;99.90;;;;;;6303280;22;20047;-80
2023/12/24 04:39:19;;;;;;;865.95;796.08;;;9.20;99.90;;;;;;6276805;22;20018;-80
2023/12/24 04:41:45;;;;;;;1107.85;951.70;;;9.30;99.90;;;;;;6331672;22;20018;-81
2023/12/24 04:44:11;;;;;;;1083.85;970.15;;;9.30;99.90;;;;;;6303932;22;20445;-81
2023/12/24 04:46:43;;;;;;;920.45;840.90;;;9.30;99.90;;;;;;6302536;22;20026;-81
2023/12/24 04:49:09;;;;;;;967.75;879.67;;;9.30;99.90;;;;;;6303513;22;20014;-81
2023/12/24 04:51:35;;;;;;;939.05;855.53;;;9.30;99.90;;;;;;6301536;22;20015;-82
2023/12/24 04:54:00;;;;;;;1037.43;922.72;;;9.30;99.90;;;;;;6332608;22;20113;-81
2023/12/24 04:56:26;;;;;;;1016.58;913.92;;;9.30;99.90;;;;;;6302065;22;20038;-81
2023/12/24 04:58:53;;;;;;;937.65;855.15;;;9.30;99.90;;;;;;6303282;22;20450;-81
2023/12/24 05:01:19;;;;;;;971.80;878.75;;;9.30;99.90;;;;;;6303103;22;20085;-81
2023/12/24 05:03:45;;;;;;;956.92;869.92;;;9.40;99.90;;;;;;6331934;22;20060;-81
2023/12/24 05:06:11;;;;;;;955.40;865.58;;;9.30;99.90;;;;;;6275696;22;20030;-80
2023/12/24 05:08:39;;;;;;;861.95;790.25;;;9.40;99.90;;;;;;6303302;22;20026;-80
2023/12/24 05:11:06;;;;;;;874.63;799.10;;;9.40;99.90;;;;;;6303922;22;20045;-81
2023/12/24 05:13:32;;;;;;;914.63;834.38;;;9.40;99.90;;;;;;6302049;22;20054;-81
2023/12/24 05:15:58;;;;;;;919.40;839.90;;;9.50;99.90;;;;;;6278215;22;20068;-81
2023/12/24 05:18:23;;;;;;;1030.30;927.28;;;9.50;99.90;;;;;;6331740;22;20014;-81
2023/12/24 05:20:49;;;;;;;1010.50;913.33;;;9.50;99.90;;;;;;6330009;22;20022;-81
2023/12/24 05:23:18;;;;;;;906.88;826.20;;;9.50;99.90;;;;;;6331745;22;20512;-81
2023/12/24 05:25:43;;;;;;;1015.30;915.05;;;9.50;99.90;;;;;;6302881;22;20462;-81
2023/12/24 05:28:09;;;;;;;911.28;832.10;;;9.40;99.90;;;;;;6331149;22;20019;-81
2023/12/24 05:30:35;;;;;;;998.88;907.53;;;9.60;99.90;;;;;;6302889;22;20015;-81
2023/12/24 05:33:01;;;;;;;949.25;863.75;;;9.50;99.90;;;;;;6303917;22;20015;-81
2023/12/24 05:35:26;;;;;;;1020.95;920.05;;;9.60;99.90;;;;;;6329798;22;20085;-81
2023/12/24 05:37:52;;;;;;;920.60;841.60;;;9.60;99.90;;;;;;6303574;22;20469;-81
2023/12/24 05:40:18;;;;;;;1038.03;930.78;;;9.60;99.90;;;;;;6303534;22;20014;-81
2023/12/24 05:42:43;;;;;;;1054.22;944.92;;;9.50;99.90;;;;;;6302080;22;20350;-80
2023/12/24 05:45:11;;;;;;;1094.65;976.08;;;9.50;99.90;;;;;;6277433;22;20331;-81
2023/12/24 05:47:37;;;;;;;984.58;886.67;;;9.50;99.90;;;;;;6302964;22;20044;-80
2023/12/24 05:50:05;;;;;;;978.83;887.53;;;9.50;99.90;;;;;;6301786;22;20030;-81
2023/12/24 05:52:31;;;;;;;916.08;837.55;;;9.60;99.90;;;;;;6277643;22;20482;-81
2023/12/24 05:54:57;;;;;;;1090.95;976.90;;;9.50;99.90;;;;;;6330423;22;20015;-81
2023/12/24 05:57:22;;;;;;;947.88;857.03;;;9.60;99.90;;;;;;6303692;22;20089;-81
2023/12/24 05:59:48;;;;;;;977.38;880.67;;;9.60;99.90;;;;;;6303102;22;20022;-81
2023/12/24 06:02:14;;;;;;;1077.05;964.17;;;9.60;99.90;;;;;;6302064;22;20455;-81
2023/12/24 06:04:40;;;;;;;1193.38;981.95;;;9.60;99.90;;;;;;6303494;22;20065;-81
2023/12/24 06:07:06;;;;;;;941.10;854.05;;;9.70;99.90;;;;;;6302917;22;20015;-81
2023/12/24 06:09:32;;;;;;;966.72;870.53;;;9.60;99.90;;;;;;6304677;22;20018;-80
2023/12/24 06:11:57;;;;;;;1022.28;918.00;;;9.60;99.90;;;;;;6305305;22;20049;-81
2023/12/24 06:14:23;;;;;;;1020.03;919.95;;;9.70;99.90;;;;;;6305346;22;20019;-81
2023/12/24 06:16:50;;;;;;;1009.95;910.63;;;9.80;99.90;;;;;;6304106;22;20022;-81
2023/12/24 06:19:15;;;;;;;1095.07;977.65;;;9.80;99.90;;;;;;6333306;22;20011;-81
2023/12/24 06:21:41;;;;;;;881.20;805.40;;;9.70;99.90;;;;;;6304030;22;20042;-81
2023/12/24 06:24:07;;;;;;;928.72;847.97;;;9.70;99.90;;;;;;6333208;22;20068;-80
2023/12/24 06:26:33;;;;;;;852.10;783.65;;;9.70;99.90;;;;;;6304488;22;20411;-81
2023/12/24 06:28:59;;;;;;;974.33;883.28;;;9.70;99.90;;;;;;6306087;22;20025;-81
2023/12/24 06:31:25;;;;;;;974.78;883.38;;;9.80;99.90;;;;;;6303862;22;20015;-81
2023/12/24 06:33:51;;;;;;;937.53;852.60;;;9.70;99.90;;;;;;6305652;22;20030;-81
2023/12/24 06:36:17;;;;;;;881.63;806.83;;;9.80;99.90;;;;;;6303618;22;20011;-80
2023/12/24 06:38:44;;;;;;;1034.63;931.90;;;9.80;99.90;;;;;;6304910;22;20022;-80
2023/12/24 06:41:10;;;;;;;978.30;885.90;;;9.90;99.90;;;;;;6279008;22;20079;-80
2023/12/24 06:43:37;;;;;;;940.30;853.33;;;9.80;99.90;;;;;;6333315;22;20533;-80
2023/12/24 06:46:06;;;;;;;857.67;786.33;;;9.90;99.90;;;;;;6304338;22;20021;-80
2023/12/24 06:48:32;;;;;;;979.83;884.55;;;9.90;99.90;;;;;;6304209;22;20407;-80
2023/12/24 06:50:58;;;;;;;1034.95;924.20;;;9.80;99.90;;;;;;6303354;22;20109;-80
2023/12/24 06:53:24;;;;;;;997.83;895.00;;;9.80;99.90;;;;;;6304513;22;20054;-81
2023/12/24 06:55:50;;;;;;;1114.43;958.20;;;10.00;99.90;;;;;;6304923;22;20457;-81
2023/12/24 06:58:16;;;;;;;1023.58;922.42;;;9.90;99.90;;;;;;6332035;22;20118;-81
2023/12/24 07:00:41;;;;;;;1047.35;936.30;;;9.90;99.90;;;;;;6303987;22;20023;-81
2023/12/24 07:03:07;;;;;;;965.95;876.30;;;10.00;99.90;;;;;;6332859;22;20450;-81
2023/12/24 07:05:35;;;;;;;919.97;840.33;;;10.00;99.90;;;;;;6302496;22;20139;-82
2023/12/24 07:08:02;;;;;;;975.47;886.95;;;10.00;99.90;;;;;;6305234;22;20037;-80
2023/12/24 07:10:28;;;;;;;1002.13;907.28;;;9.90;99.90;;;;;;6304286;22;20021;-81
2023/12/24 07:12:53;;;;;;;927.00;843.92;;;10.00;99.90;;;;;;6303775;22;20023;-81
2023/12/24 07:15:19;;;;;;;983.83;892.15;;;9.90;99.90;;;;;;6304596;22;20094;-80
2023/12/24 07:17:45;;;;;;;879.65;806.35;;;9.90;99.90;;;;;;6304138;22;20503;-81
2023/12/24 07:20:11;;;;;;;917.78;835.83;;;10.00;99.90;;;;;;6302311;22;20026;-80
2023/12/24 07:22:37;;;;;;;863.22;790.42;;;10.10;99.90;;;;;;6304834;22;20439;-80
2023/12/24 07:25:04;;;;;;;1065.85;955.05;;;10.00;99.90;;;;;;6304615;22;20030;-81
2023/12/24 07:27:29;;;;;;;942.15;852.97;;;10.00;99.90;;;;;;6331484;22;20023;-81
2023/12/24 07:29:56;;;;;;;1031.80;923.35;;;10.10;99.90;;;;;;6304229;22;20351;-81
2023/12/24 07:32:21;;;;;;;1016.03;914.95;;;10.10;99.90;;;;;;6304263;22;20159;-81
2023/12/24 07:34:47;;;;;;;989.63;894.70;;;10.00;99.90;;;;;;6303727;22;20015;-81
2023/12/24 07:37:13;;;;;;;953.80;866.97;;;10.10;99.90;;;;;;6331272;22;20342;-80
2023/12/24 07:39:40;;;;;;;1071.43;957.45;;;10.10;99.90;;;;;;6333014;22;20096;-81
2023/12/24 07:42:05;;;;;;;972.08;879.92;;;10.10;99.90;;;;;;6277355;22;20014;-81
2023/12/24 07:44:31;;;;;;;997.45;900.38;;;10.20;99.90;;;;;;6327958;22;20099;-81
2023/12/24 07:46:57;;;;;;;1017.80;915.45;;;10.10;99.90;;;;;;6303446;22;20408;-81
2023/12/24 07:49:23;;;;;;;874.05;800.10;;;10.20;99.90;;;;;;6330486;22;20015;-80
2023/12/24 07:51:48;;;;;;;1042.30;935.55;;;10.20;99.90;;;;;;6301817;22;20110;-80
2023/12/24 07:54:14;;;;;;;904.40;822.50;;;10.10;99.90;;;;;;6302436;22;20097;-81
2023/12/24 07:56:40;;;;;;;836.50;768.97;;;10.30;99.90;;;;;;6303174;22;20117;-81
2023/12/24 07:59:06;;;;;;;991.60;894.92;;;10.20;99.90;;;;;;6304165;22;20015;-81
2023/12/24 08:01:31;;;;;;;857.20;785.22;;;10.20;99.90;;;;;;6329077;22;20021;-81
2023/12/24 08:03:57;;;;;;;876.83;798.15;;;10.20;99.90;;;;;;6304373;22;20130;-80
2023/12/24 08:06:23;;;;;;;885.90;809.53;;;10.30;99.90;;;;;;6302457;22;20061;-81
2023/12/24 08:08:49;;;;;;;914.40;830.20;;;10.20;99.90;;;;;;6302691;22;20023;-81
2023/12/24 08:11:15;;;;;;;884.38;802.10;;;10.20;99.90;;;;;;6302929;22;20528;-81
2023/12/24 08:13:40;;;;;;;961.67;872.80;;;10.30;99.90;;;;;;6302506;22;20015;-81
2023/12/24 08:16:07;;;;;;;852.13;778.20;;;10.30;99.90;;;;;;6302535;22;20334;-81
2023/12/24 08:18:33;;;;;;;889.80;814.03;;;10.20;99.90;;;;;;6330269;22;20026;-81
2023/12/24 08:20:59;;;;;;;877.65;802.22;;;10.20;99.90;;;;;;6330089;22;20007;-81
2023/12/24 08:23:25;;;;;;;879.47;804.50;;;10.20;99.90;;;;;;6303028;22;20313;-81
2023/12/24 08:25:51;;;;;;;814.10;748.47;;;10.30;99.90;;;;;;6331347;22;20021;-81
2023/12/24 08:28:17;;;;;;;905.50;823.13;;;10.30;99.90;;;;;;6303669;22;20023;-81
2023/12/24 08:30:42;;;;;;;851.50;779.25;;;10.30;99.90;;;;;;6302432;22;20352;-81
2023/12/24 08:33:08;;;;;;;877.15;801.53;;;10.30;99.90;;;;;;6303969;22;20023;-81
2023/12/24 08:35:35;;;;;;;958.10;866.72;;;10.40;99.90;;;;;;6302768;22;20018;-81
2023/12/24 08:38:00;;;;;;;1022.60;912.90;;;10.30;99.90;;;;;;6303308;22;20041;-81
2023/12/24 08:40:28;;;;;;;924.17;840.40;;;10.40;99.90;;;;;;6331356;22;20011;-82
2023/12/24 08:42:54;;;;;;;963.45;866.88;;;10.40;99.90;;;;;;6303484;22;20015;-81
2023/12/24 08:45:22;;;;;;;981.47;882.55;;;10.30;99.90;;;;;;6302778;22;20431;-81
2023/12/24 08:47:48;;;;;;;818.65;752.95;;;10.40;99.90;;;;;;6331393;22;20022;-82
2023/12/24 08:50:14;;;;;;;912.75;833.10;;;10.50;99.90;;;;;;6302469;22;20023;-80
2023/12/24 08:52:40;;;;;;;906.13;824.53;;;10.40;99.90;;;;;;6303055;22;20090;-80
2023/12/24 08:55:07;;;;;;;812.72;745.22;;;10.30;99.90;;;;;;6277467;22;20014;-81
2023/12/24 08:57:33;;;;;;;915.42;829.83;;;10.40;99.90;;;;;;6331142;22;20067;-81
2023/12/24 08:59:58;;;;;;;893.72;816.40;;;10.50;99.90;;;;;;6331688;22;20019;-81
2023/12/24 09:02:24;;;;;;;879.13;804.20;;;10.50;99.90;;;;;;6298496;22;20393;-81
2023/12/24 09:04:50;;;;;;;918.75;839.40;;;10.60;99.90;;;;;;6271483;22;20027;-80
2023/12/24 09:07:17;;;;;;;921.95;838.33;;;10.60;99.90;;;;;;6297400;22;20026;-80
2023/12/24 09:09:43;;;;;;;966.47;875.05;;;10.60;99.90;;;;;;6298474;22;20297;-80
2023/12/24 09:12:09;;;;;;;826.72;759.75;;;10.60;99.90;;;;;;6298873;22;20011;-80
2023/12/24 09:14:35;;;;;;;832.45;764.53;;;10.60;99.90;;;;;;6299001;22;20801;-80
2023/12/24 09:17:00;;;;;;;853.70;775.28;;;10.60;99.90;;;;;;6298141;22;20015;-80
2023/12/24 09:19:26;;;;;;;888.75;812.10;;;10.60;99.90;;;;;;6297355;22;20866;-81
2023/12/24 09:21:52;;;;;;;866.50;794.33;;;10.70;99.90;;;;;;6270811;22;20018;-80
2023/12/24 09:24:17;;;;;;;815.13;749.75;;;10.60;99.90;;;;;;6299835;22;20324;-80
2023/12/24 09:26:43;;;;;;;833.60;766.28;;;10.60;99.90;;;;;;6297086;22;20335;-81
2023/12/24 09:29:11;;;;;;;812.95;744.53;;;10.60;99.90;;;;;;6300689;22;20073;-80
2023/12/24 09:31:39;;;;;;;828.83;761.33;;;10.70;99.90;;;;;;6298149;22;20015;-80
2023/12/24 09:34:06;;;;;;;861.55;788.28;;;10.70;99.90;;;;;;6272033;22;20020;-80
2023/12/24 09:36:32;;;;;;;782.85;721.20;;;10.60;99.90;;;;;;6296097;22;20019;-80
2023/12/24 09:38:57;;;;;;;777.95;715.35;;;10.70;99.90;;;;;;6300206;22;20092;-80
2023/12/24 09:41:23;;;;;;;805.03;740.60;;;10.70;99.90;;;;;;6296185;22;20420;-81
2023/12/24 09:43:49;;;;;;;929.67;844.53;;;10.80;99.90;;;;;;6300104;22;20019;-81
2023/12/24 09:46:15;;;;;;;808.35;743.33;;;10.80;99.90;;;;;;6299881;22;20015;-80
2023/12/24 09:48:40;;;;;;;915.33;832.47;;;10.70;99.90;;;;;;6300439;22;20098;-80
2023/12/24 09:51:08;;;;;;;812.10;747.53;;;10.80;99.90;;;;;;6299141;22;20023;-81
2023/12/24 09:53:34;;;;;;;804.33;739.88;;;10.90;99.90;;;;;;6273726;22;20462;-83
2023/12/24 09:55:59;;;;;;;827.95;760.38;;;10.90;99.90;;;;;;6299156;22;20011;-81
2023/12/24 09:58:25;;;;;;;929.90;840.67;;;10.90;99.90;;;;;;6301782;22;20026;-80
2023/12/24 10:00:51;;;;;;;799.25;735.20;;;10.80;99.90;;;;;;6308073;22;20018;-81
2023/12/24 10:03:17;;;;;;;802.45;737.97;;;10.90;99.90;;;;;;6304928;22;20113;-81
2023/12/24 10:06:07;;;;;;;959.25;866.42;;;10.90;99.90;;;;;;6303478;22;20098;-80
2023/12/24 10:08:33;;;;;;;943.92;856.20;;;10.90;99.90;;;;;;6331138;22;20018;-81
2023/12/24 10:11:15;;;;;;;791.67;729.25;;;10.90;99.90;;;;;;6332219;22;20019;-80
2023/12/24 10:13:41;;;;;;;856.22;783.60;;;11.00;99.90;;;;;;6305017;22;20027;-81
2023/12/24 10:16:09;;;;;;;815.45;749.60;;;11.00;99.90;;;;;;6303667;22;20010;-81
2023/12/24 10:18:35;;;;;;;924.63;837.78;;;10.90;99.90;;;;;;6305164;22;20025;-81
2023/12/24 10:21:06;;;;;;;895.78;815.03;;;10.90;99.90;;;;;;6331752;22;20026;-80
2023/12/24 10:23:32;;;;;;;1041.40;932.40;;;11.00;99.90;;;;;;6304066;22;20023;-81
2023/12/24 10:26:04;;;;;;;921.08;836.25;;;11.00;99.90;;;;;;6304978;22;20015;-80
2023/12/24 10:28:30;;;;;;;818.13;748.13;;;11.10;99.90;;;;;;6330372;22;20026;-81
2023/12/24 10:31:08;;;;;;;804.03;740.47;;;11.00;99.90;;;;;;6303672;22;20022;-80
2023/12/24 10:33:35;;;;;;;962.95;871.15;;;11.20;99.90;;;;;;6304312;22;20094;-80
2023/12/24 10:36:01;;;;;;;845.72;775.75;;;11.10;99.90;;;;;;6303551;22;20015;-80
2023/12/24 10:38:27;;;;;;;835.35;765.83;;;11.10;99.90;;;;;;6332722;22;20751;-81
2023/12/24 10:40:53;;;;;;;943.63;854.72;;;11.20;99.90;;;;;;6304704;22;20511;-81
2023/12/24 10:43:19;;;;;;;920.60;838.67;;;11.30;99.90;;;;;;6303786;22;20896;-81
2023/12/24 10:45:46;;;;;;;827.80;759.20;;;11.30;99.90;;;;;;6304062;22;20017;-79
2023/12/24 10:48:12;;;;;;;752.17;692.45;;;11.30;99.90;;;;;;6332604;22;20215;-79
2023/12/24 10:50:38;;;;;;;858.58;783.33;;;11.30;99.90;;;;;;6303085;22;20026;-79
2023/12/24 10:53:04;;;;;;;996.50;894.45;;;11.40;99.90;;;;;;6304311;22;20023;-80
2023/12/24 10:55:33;;;;;;;896.08;816.83;;;11.50;99.90;;;;;;6304493;22;20072;-80
2023/12/24 10:58:09;;;;;;;972.08;877.63;;;11.50;99.90;;;;;;6331992;22;20033;-80
2023/12/24 11:00:35;;;;;;;723.38;668.72;;;11.40;99.90;;;;;;6331865;22;20010;-80
2023/12/24 11:03:00;;;;;;;867.67;791.03;;;11.50;99.90;;;;;;6279143;22;20404;-80
2023/12/24 11:05:46;;;;;;;896.65;816.67;;;11.70;99.90;;;;;;6330897;22;20043;-80
2023/12/24 11:08:31;;;;;;;962.20;869.45;;;11.70;99.90;;;;;;6304254;22;20027;-80
2023/12/24 11:11:04;;;;;;;787.17;724.05;;;11.80;99.90;;;;;;6304338;22;20050;-80
2023/12/24 11:13:31;;;;;;;789.22;725.03;;;11.80;99.90;;;;;;6303700;22;20477;-80
2023/12/24 11:15:58;;;;;;;685.60;632.55;;;11.80;99.90;;;;;;6332097;22;20019;-80
2023/12/24 11:18:43;;;;;;;755.83;695.25;;;11.70;99.90;;;;;;6303945;22;20090;-79
2023/12/24 11:21:11;;;;;;;843.08;771.92;;;11.80;99.90;;;;;;6303267;22;20023;-80
2023/12/24 11:23:38;;;;;;;901.80;821.13;;;11.80;99.90;;;;;;6332537;22;20021;-80
2023/12/24 11:26:27;;;;;;;1072.00;929.03;;;11.70;99.90;;;;;;6304042;22;20029;-80
2023/12/24 11:28:52;;;;;;;948.67;855.85;;;11.80;99.90;;;;;;6304813;22;20343;-80
2023/12/24 11:31:24;;;;;;;781.42;719.08;;;11.70;99.90;;;;;;6303530;22;20021;-81
2023/12/24 11:33:50;;;;;;;861.47;778.55;;;11.60;99.90;;;;;;6331934;22;20014;-80
2023/12/24 11:36:18;;;;;;;758.10;697.83;;;11.70;99.90;;;;;;6277113;22;20015;-80
2023/12/24 11:38:45;;;;;;;788.45;723.70;;;11.70;99.90;;;;;;6304521;22;20022;-80
2023/12/24 11:41:16;;;;;;;705.03;650.95;;;11.60;99.90;;;;;;6302633;22;20019;-81
2023/12/24 11:43:53;;;;;;;794.35;729.55;;;11.60;99.90;;;;;;6304683;22;20423;-81
2023/12/24 11:46:19;;;;;;;880.03;803.78;;;11.60;99.90;;;;;;6302836;22;20022;-80
2023/12/24 11:48:45;;;;;;;726.20;670.53;;;11.60;99.90;;;;;;6304279;22;20014;-81
2023/12/24 11:51:11;;;;;;;731.22;674.20;;;11.50;99.90;;;;;;6303013;22;20022;-81
2023/12/24 11:53:39;;;;;;;755.53;696.10;;;11.60;99.90;;;;;;6303133;22;20011;-81
2023/12/24 11:56:08;;;;;;;704.85;651.70;;;11.60;99.90;;;;;;6304067;22;20351;-80
2023/12/24 11:58:34;;;;;;;1011.17;902.97;;;11.60;99.90;;;;;;6304022;22;20026;-80
2023/12/24 12:01:02;;;;;;;885.72;808.67;;;11.70;99.90;;;;;;6321573;22;20049;-80
2023/12/24 12:03:29;;;;;;;844.00;773.40;;;11.60;99.90;;;;;;6272659;22;20420;-80
2023/12/24 12:05:54;;;;;;;753.20;693.08;;;11.70;99.90;;;;;;6271476;22;20026;-80
2023/12/24 12:08:20;;;;;;;842.08;769.85;;;11.60;99.90;;;;;;6272033;22;20035;-79